Time;durP1;ratioP1;P1;durP2;ratioP2;P2;SDS_P1;SDS_P2;PMS_P1;PMS_P2;Temp;Humidity;BMP_temperature;BMP_pressure;BME280_temperature;BME280_humidity;BME280_pressure;Samples;Min_cycle;Max_cycle;Signal;HPM_P1;HPM_P2
2023/12/31 00:00:32;;;;;;;1999.90;999.90;;;3.80;99.90;;;;;;6250894;22;20545;-78
2023/12/31 00:02:58;;;;;;;1999.90;999.90;;;3.70;99.90;;;;;;6225208;22;20095;-77
2023/12/31 00:05:23;;;;;;;1999.90;999.90;;;3.70;99.90;;;;;;6225353;22;20031;-79
2023/12/31 00:07:49;;;;;;;1999.90;999.90;;;3.80;99.90;;;;;;6225333;22;20016;-79
2023/12/31 00:10:14;;;;;;;1999.90;999.90;;;3.70;99.90;;;;;;6252856;22;20013;-79
2023/12/31 00:12:40;;;;;;;1999.90;999.90;;;3.70;99.90;;;;;;6250485;22;20071;-78
2023/12/31 00:15:06;;;;;;;1999.90;999.90;;;3.70;99.90;;;;;;6252274;22;20452;-77
2023/12/31 00:17:31;;;;;;;1999.90;999.90;;;3.70;99.90;;;;;;6225193;22;20017;-77
2023/12/31 00:19:57;;;;;;;1999.90;999.90;;;3.60;99.90;;;;;;6252753;22;20011;-77
2023/12/31 00:22:22;;;;;;;1999.90;999.90;;;3.50;99.90;;;;;;6252319;22;20015;-78
2023/12/31 00:24:51;;;;;;;1999.90;999.90;;;3.50;99.90;;;;;;6251521;22;20075;-77
2023/12/31 00:27:17;;;;;;;1999.90;999.90;;;3.40;99.90;;;;;;6251641;22;20067;-78
2023/12/31 00:29:44;;;;;;;1999.90;999.90;;;3.40;99.90;;;;;;6252521;22;20032;-78
2023/12/31 00:32:10;;;;;;;1999.90;999.90;;;3.50;99.90;;;;;;6225273;22;20005;-78
2023/12/31 00:34:36;;;;;;;1999.90;999.90;;;3.60;99.90;;;;;;6251965;22;20066;-78
2023/12/31 00:37:02;;;;;;;1999.90;999.90;;;3.60;99.90;;;;;;6252382;22;20500;-78
2023/12/31 00:39:27;;;;;;;1999.90;999.90;;;3.60;99.90;;;;;;6250386;22;20352;-78
2023/12/31 00:41:53;;;;;;;1999.90;999.90;;;3.70;99.90;;;;;;6252330;22;20001;-78
2023/12/31 00:44:18;;;;;;;1999.90;999.90;;;3.70;99.90;;;;;;6250368;22;20411;-78
2023/12/31 00:46:44;;;;;;;1999.90;999.90;;;3.80;99.90;;;;;;6252253;22;20013;-77
2023/12/31 00:49:10;;;;;;;1999.90;999.90;;;3.70;99.90;;;;;;6250676;22;20066;-77
2023/12/31 00:51:35;;;;;;;1999.90;999.90;;;3.70;99.90;;;;;;6225322;22;20012;-77
2023/12/31 00:54:01;;;;;;;1999.90;999.90;;;3.60;99.90;;;;;;6224634;22;20017;-78
2023/12/31 00:56:26;;;;;;;1999.90;999.90;;;3.50;99.90;;;;;;6252319;22;20009;-77
2023/12/31 00:58:52;;;;;;;1999.90;999.90;;;3.40;99.90;;;;;;6251804;22;20009;-77
2023/12/31 01:01:17;;;;;;;1999.90;999.90;;;3.40;99.90;;;;;;6252412;22;20002;-77
2023/12/31 01:03:43;;;;;;;1999.90;999.90;;;3.30;99.90;;;;;;6250381;22;20008;-77
2023/12/31 01:06:08;;;;;;;1999.90;999.90;;;3.30;99.90;;;;;;6252380;22;20017;-77
2023/12/31 01:08:34;;;;;;;1999.90;999.90;;;3.20;99.90;;;;;;6252312;22;20083;-77
2023/12/31 01:11:00;;;;;;;1999.90;999.90;;;3.10;99.90;;;;;;6225203;22;20419;-77
2023/12/31 01:13:27;;;;;;;1999.90;999.90;;;3.10;99.90;;;;;;6252010;22;20009;-77
2023/12/31 01:15:53;;;;;;;1999.90;999.90;;;3.10;99.90;;;;;;6224966;22;20024;-77
2023/12/31 01:18:19;;;;;;;1999.90;999.90;;;3.00;99.90;;;;;;6224926;22;20463;-77
2023/12/31 01:20:45;;;;;;;1999.90;999.90;;;3.00;99.90;;;;;;6252153;22;20012;-78
2023/12/31 01:23:10;;;;;;;1999.90;999.90;;;2.90;99.90;;;;;;6224929;22;20011;-78
2023/12/31 01:25:36;;;;;;;1999.90;999.90;;;2.80;99.90;;;;;;6249833;22;20404;-78
2023/12/31 01:28:02;;;;;;;1999.90;999.90;;;2.80;99.90;;;;;;6249494;22;20499;-77
2023/12/31 01:30:28;;;;;;;1999.90;999.90;;;2.70;99.90;;;;;;6252422;22;20446;-77
2023/12/31 01:32:54;;;;;;;1999.90;999.90;;;2.70;99.90;;;;;;6252330;22;20009;-77
2023/12/31 01:35:19;;;;;;;1999.90;999.90;;;2.70;99.90;;;;;;6252126;22;20453;-77
2023/12/31 01:37:46;;;;;;;1999.90;999.90;;;2.70;99.90;;;;;;6225486;22;20004;-77
2023/12/31 01:40:11;;;;;;;1999.90;999.90;;;2.60;99.90;;;;;;6252682;22;20009;-78
2023/12/31 01:42:37;;;;;;;1999.90;999.90;;;2.80;99.90;;;;;;6252249;22;20005;-78
2023/12/31 01:45:04;;;;;;;1999.90;999.90;;;2.60;99.90;;;;;;6252208;22;20020;-78
2023/12/31 01:47:34;;;;;;;1999.90;999.90;;;2.60;99.90;;;;;;6225352;22;20011;-77
2023/12/31 01:50:02;;;;;;;1999.90;999.90;;;2.50;99.90;;;;;;6252403;22;20019;-78
2023/12/31 01:52:29;;;;;;;1999.90;999.90;;;2.50;99.90;;;;;;6250531;22;20005;-78
2023/12/31 01:54:56;;;;;;;1999.90;999.90;;;2.40;99.90;;;;;;6250509;22;20686;-77
2023/12/31 01:57:25;;;;;;;1999.90;999.90;;;2.40;99.90;;;;;;6252479;22;20005;-78
2023/12/31 01:59:53;;;;;;;1999.90;999.90;;;2.30;99.90;;;;;;6252620;22;20059;-78
2023/12/31 02:02:19;;;;;;;1999.90;999.90;;;2.30;99.90;;;;;;6252291;22;20005;-78
2023/12/31 02:04:45;;;;;;;1999.90;999.90;;;2.30;99.90;;;;;;6252136;22;20063;-78
2023/12/31 02:07:10;;;;;;;1999.90;999.90;;;2.30;99.90;;;;;;6250696;22;20012;-77
2023/12/31 02:09:36;;;;;;;1999.90;999.90;;;2.40;99.90;;;;;;6250675;22;20020;-77
2023/12/31 02:12:02;;;;;;;1999.90;999.90;;;2.50;99.90;;;;;;6252322;22;20012;-78
2023/12/31 02:14:28;;;;;;;1999.90;999.90;;;2.50;99.90;;;;;;6251863;22;20013;-77
2023/12/31 02:16:53;;;;;;;1999.90;999.90;;;2.40;99.90;;;;;;6252163;22;20008;-78
2023/12/31 02:19:19;;;;;;;1999.90;999.90;;;2.40;99.90;;;;;;6251950;22;20012;-77
2023/12/31 02:21:45;;;;;;;1999.90;999.90;;;2.30;99.90;;;;;;6225112;22;20063;-78
2023/12/31 02:24:14;;;;;;;1999.90;999.90;;;2.30;99.90;;;;;;6224804;22;20063;-78
2023/12/31 02:26:40;;;;;;;1999.90;999.90;;;2.20;99.90;;;;;;6252306;22;20035;-78
2023/12/31 02:29:06;;;;;;;1999.90;999.90;;;2.10;99.90;;;;;;6251630;22;20024;-77
2023/12/31 02:31:33;;;;;;;1999.90;999.90;;;2.00;99.90;;;;;;6252304;22;20132;-77
2023/12/31 02:33:59;;;;;;;1999.90;999.90;;;2.00;99.90;;;;;;6224484;22;20013;-78
2023/12/31 02:36:25;;;;;;;1999.90;999.90;;;2.00;99.90;;;;;;6252237;22;20016;-77
2023/12/31 02:38:50;;;;;;;1999.90;999.90;;;2.00;99.90;;;;;;6224905;22;20058;-78
2023/12/31 02:41:16;;;;;;;1999.90;999.90;;;2.10;99.90;;;;;;6250414;22;20008;-78
2023/12/31 02:43:41;;;;;;;1999.90;999.90;;;2.20;99.90;;;;;;6250008;22;20009;-78
2023/12/31 02:46:10;;;;;;;1999.90;999.90;;;2.50;99.90;;;;;;6252104;22;20045;-78
2023/12/31 02:48:35;;;;;;;1999.90;999.90;;;2.20;99.90;;;;;;6252856;22;20005;-78
2023/12/31 02:51:01;;;;;;;1999.90;999.90;;;2.20;99.90;;;;;;6226391;22;20009;-78
2023/12/31 02:53:26;;;;;;;1999.90;999.90;;;2.20;99.90;;;;;;6252934;22;20017;-78
2023/12/31 02:55:52;;;;;;;1999.90;999.90;;;2.30;99.90;;;;;;6253269;22;20348;-78
2023/12/31 02:58:17;;;;;;;1999.90;999.90;;;2.20;99.90;;;;;;6253319;22;20305;-78
2023/12/31 03:00:43;;;;;;;1999.90;999.90;;;2.20;99.90;;;;;;6253641;22;20008;-78
2023/12/31 03:03:08;;;;;;;1999.90;999.90;;;2.20;99.90;;;;;;6252905;22;20144;-78
2023/12/31 03:05:34;;;;;;;1999.90;999.90;;;2.30;99.90;;;;;;6253204;22;20341;-78
2023/12/31 03:08:00;;;;;;;1999.90;999.90;;;2.30;99.90;;;;;;6226092;22;20005;-78
2023/12/31 03:10:27;;;;;;;1999.90;999.90;;;2.40;99.90;;;;;;6226155;22;20016;-78
2023/12/31 03:12:53;;;;;;;1999.90;999.90;;;2.50;99.90;;;;;;6253278;22;20063;-78
2023/12/31 03:15:20;;;;;;;1999.90;999.90;;;2.60;99.90;;;;;;6225995;22;20012;-78
2023/12/31 03:17:45;;;;;;;1999.90;999.90;;;2.60;99.90;;;;;;6226403;22;20005;-78
2023/12/31 03:20:11;;;;;;;1999.90;999.90;;;2.70;99.90;;;;;;6253269;22;20080;-78
2023/12/31 03:22:37;;;;;;;1999.90;999.90;;;2.70;99.90;;;;;;6253077;22;20004;-78
2023/12/31 03:25:03;;;;;;;1999.90;999.90;;;2.80;99.90;;;;;;6226061;22;20013;-78
2023/12/31 03:27:28;;;;;;;1999.90;999.90;;;2.90;99.90;;;;;;6225200;22;20004;-78
2023/12/31 03:29:54;;;;;;;1999.90;999.90;;;3.00;99.90;;;;;;6251456;22;20349;-78
2023/12/31 03:32:19;;;;;;;1999.90;999.90;;;3.10;99.90;;;;;;6226018;22;20095;-78
2023/12/31 03:34:45;;;;;;;1999.90;999.90;;;3.10;99.90;;;;;;6251204;22;20017;-78
2023/12/31 03:37:10;;;;;;;1999.90;999.90;;;3.20;99.90;;;;;;6253017;22;20009;-78
2023/12/31 03:39:36;;;;;;;1999.90;999.90;;;3.30;99.90;;;;;;6226223;22;20388;-78
2023/12/31 03:42:01;;;;;;;1999.90;999.90;;;3.30;99.90;;;;;;6253067;22;20441;-78
2023/12/31 03:44:27;;;;;;;1999.90;999.90;;;3.30;99.90;;;;;;6252757;22;20036;-78
2023/12/31 03:46:52;;;;;;;1999.90;999.90;;;3.30;99.90;;;;;;6253017;22;20016;-78
2023/12/31 03:49:18;;;;;;;1999.90;999.90;;;3.30;99.90;;;;;;6225936;22;20008;-78
2023/12/31 03:51:44;;;;;;;1999.90;999.90;;;3.40;99.90;;;;;;6253055;22;20011;-78
2023/12/31 03:54:09;;;;;;;1999.90;999.90;;;3.40;99.90;;;;;;6225392;22;20012;-78
2023/12/31 03:56:35;;;;;;;1999.90;999.90;;;3.40;99.90;;;;;;6253051;22;20016;-78
2023/12/31 03:59:00;;;;;;;1999.90;999.90;;;3.50;99.90;;;;;;6252731;22;20425;-77
2023/12/31 04:01:26;;;;;;;1999.90;999.90;;;3.40;99.90;;;;;;6253012;22;20005;-77
2023/12/31 04:03:51;;;;;;;1999.90;999.90;;;3.30;99.90;;;;;;6225779;22;20013;-77
2023/12/31 04:06:17;;;;;;;1999.90;999.90;;;3.20;99.90;;;;;;6253009;22;20004;-77
2023/12/31 04:08:42;;;;;;;1999.90;999.90;;;3.20;99.90;;;;;;6251297;22;20020;-77
2023/12/31 04:11:08;;;;;;;1999.90;999.90;;;3.20;99.90;;;;;;6252976;22;20009;-77
2023/12/31 04:13:34;;;;;;;1999.90;999.90;;;3.20;99.90;;;;;;6253049;22;20076;-77
2023/12/31 04:15:59;;;;;;;1999.90;999.90;;;3.20;99.90;;;;;;6253003;22;20055;-77
2023/12/31 04:18:25;;;;;;;1999.90;999.90;;;3.10;99.90;;;;;;6252220;22;20008;-77
2023/12/31 04:20:51;;;;;;;1999.90;999.90;;;3.10;99.90;;;;;;6252923;22;20083;-77
2023/12/31 04:23:16;;;;;;;1999.90;999.90;;;3.00;99.90;;;;;;6252464;22;20009;-77
2023/12/31 04:25:42;;;;;;;1999.90;999.90;;;3.00;99.90;;;;;;6252792;22;20035;-77
2023/12/31 04:28:07;;;;;;;1999.90;999.90;;;3.00;99.90;;;;;;6252172;22;20001;-77
2023/12/31 04:30:33;;;;;;;1999.90;999.90;;;3.00;99.90;;;;;;6252853;22;20019;-78
2023/12/31 04:32:58;;;;;;;1999.90;999.90;;;3.00;99.90;;;;;;6252480;22;20340;-78
2023/12/31 04:35:24;;;;;;;1999.90;999.90;;;2.90;99.90;;;;;;6252823;22;20013;-78
2023/12/31 04:37:50;;;;;;;1999.90;999.90;;;2.90;99.90;;;;;;6252634;22;20011;-78
2023/12/31 04:40:15;;;;;;;1999.90;999.90;;;2.90;99.90;;;;;;6253709;22;20348;-79
2023/12/31 04:42:41;;;;;;;1999.90;999.90;;;2.90;99.90;;;;;;6226365;22;20008;-79
2023/12/31 04:45:09;;;;;;;1999.90;999.90;;;3.00;99.90;;;;;;6252502;22;20013;-80
2023/12/31 04:47:36;;;;;;;1999.90;999.90;;;3.10;99.90;;;;;;6226696;22;20087;-79
2023/12/31 04:50:01;;;;;;;1999.90;999.90;;;3.20;99.90;;;;;;6253982;22;20012;-79
2023/12/31 04:52:27;;;;;;;1999.90;999.90;;;3.20;99.90;;;;;;6252880;22;20084;-79
2023/12/31 04:54:52;;;;;;;1999.90;999.90;;;3.20;99.90;;;;;;6226739;22;20012;-79
2023/12/31 04:57:18;;;;;;;1999.90;999.90;;;3.20;99.90;;;;;;6254459;22;20340;-80
2023/12/31 04:59:43;;;;;;;1999.90;999.90;;;3.30;99.90;;;;;;6226828;22;20012;-80
2023/12/31 05:02:09;;;;;;;1999.90;999.90;;;3.30;99.90;;;;;;6254198;22;20004;-79
2023/12/31 05:04:34;;;;;;;1999.90;999.90;;;3.40;99.90;;;;;;6253775;22;20004;-79
2023/12/31 05:07:00;;;;;;;1999.90;999.90;;;3.40;99.90;;;;;;6253900;22;20450;-80
2023/12/31 05:09:25;;;;;;;1999.90;999.90;;;3.50;99.90;;;;;;6253687;22;20463;-80
2023/12/31 05:11:51;;;;;;;1999.90;999.90;;;3.50;99.90;;;;;;6227328;22;20008;-79
2023/12/31 05:14:16;;;;;;;1999.90;999.90;;;3.50;99.90;;;;;;6253973;22;20019;-79
2023/12/31 05:16:42;;;;;;;1999.90;999.90;;;3.60;99.90;;;;;;6227325;22;20009;-80
2023/12/31 05:19:08;;;;;;;1999.90;999.90;;;3.60;99.90;;;;;;6227517;22;20017;-79
2023/12/31 05:21:34;;;;;;;1999.90;999.90;;;3.60;99.90;;;;;;6254620;22;20012;-79
2023/12/31 05:24:00;;;;;;;1999.90;999.90;;;3.60;99.90;;;;;;6227212;22;20019;-79
2023/12/31 05:26:25;;;;;;;1999.90;999.90;;;3.70;99.90;;;;;;6254755;22;20003;-80
2023/12/31 05:28:52;;;;;;;1999.90;999.90;;;3.70;99.90;;;;;;6253887;22;20013;-80
2023/12/31 05:31:17;;;;;;;1999.90;999.90;;;3.80;99.90;;;;;;6255073;22;20032;-79
2023/12/31 05:33:44;;;;;;;1999.90;999.90;;;3.90;99.90;;;;;;6254812;22;20004;-79
2023/12/31 05:36:10;;;;;;;1999.90;999.90;;;3.90;99.90;;;;;;6228428;22;20048;-79
2023/12/31 05:38:36;;;;;;;1999.90;999.90;;;4.00;99.90;;;;;;6227579;22;20039;-79
2023/12/31 05:41:02;;;;;;;1999.90;999.90;;;4.00;99.90;;;;;;6253639;22;20584;-81
2023/12/31 05:43:27;;;;;;;1999.90;999.90;;;4.00;99.90;;;;;;6228108;22;20047;-79
2023/12/31 05:45:53;;;;;;;1999.90;999.90;;;3.90;99.90;;;;;;6255957;22;20004;-79
2023/12/31 05:48:18;;;;;;;1999.90;999.90;;;3.80;99.90;;;;;;6255395;22;20350;-79
2023/12/31 05:50:44;;;;;;;1999.90;999.90;;;3.70;99.90;;;;;;6255650;22;20008;-79
2023/12/31 05:53:10;;;;;;;1999.90;999.90;;;3.60;99.90;;;;;;6253660;22;20057;-79
2023/12/31 05:55:35;;;;;;;1999.90;999.90;;;3.60;99.90;;;;;;6228175;22;20159;-79
2023/12/31 05:58:01;;;;;;;1999.90;999.90;;;3.50;99.90;;;;;;6255108;22;20052;-80
2023/12/31 06:00:27;;;;;;;1999.90;999.90;;;3.40;99.90;;;;;;6229501;22;20011;-79
2023/12/31 06:02:52;;;;;;;1999.90;999.90;;;3.40;99.90;;;;;;6233688;22;20005;-79
2023/12/31 06:05:18;;;;;;;1999.90;999.90;;;3.30;99.90;;;;;;6234631;22;20015;-79
2023/12/31 06:07:44;;;;;;;1999.90;999.90;;;3.30;99.90;;;;;;6257073;22;20013;-79
2023/12/31 06:10:09;;;;;;;1999.90;999.90;;;3.30;99.90;;;;;;6254946;22;20016;-80
2023/12/31 06:12:36;;;;;;;1999.90;999.90;;;3.20;99.90;;;;;;6227135;22;20012;-80
2023/12/31 06:15:06;;;;;;;1999.90;999.90;;;3.20;99.90;;;;;;6253834;22;20042;-79
2023/12/31 06:17:32;;;;;;;1999.90;999.90;;;3.20;99.90;;;;;;6226753;22;20016;-79
2023/12/31 06:19:58;;;;;;;1999.90;999.90;;;3.20;99.90;;;;;;6254247;22;20009;-79
2023/12/31 06:22:23;;;;;;;1999.90;999.90;;;3.20;99.90;;;;;;6252361;22;20051;-79
2023/12/31 06:24:49;;;;;;;1999.90;999.90;;;3.30;99.90;;;;;;6254216;22;20004;-79
2023/12/31 06:27:14;;;;;;;1999.90;999.90;;;3.30;99.90;;;;;;6254129;22;20412;-79
2023/12/31 06:29:40;;;;;;;1999.90;999.90;;;3.30;99.90;;;;;;6228150;22;20012;-79
2023/12/31 06:32:06;;;;;;;1999.90;999.90;;;3.40;99.90;;;;;;6260711;22;20001;-79
2023/12/31 06:34:31;;;;;;;1999.90;999.90;;;3.40;99.90;;;;;;6258497;22;20041;-79
2023/12/31 06:36:57;;;;;;;1999.90;999.90;;;3.40;99.90;;;;;;6254436;22;20059;-79
2023/12/31 06:39:22;;;;;;;1999.90;999.90;;;3.40;99.90;;;;;;6227341;22;20012;-79
2023/12/31 06:41:49;;;;;;;1999.90;999.90;;;3.40;99.90;;;;;;6254710;22;20050;-80
2023/12/31 06:44:15;;;;;;;1999.90;999.90;;;3.50;99.90;;;;;;6254254;22;20008;-79
2023/12/31 06:46:40;;;;;;;1999.90;999.90;;;3.60;99.90;;;;;;6254477;22;20009;-79
2023/12/31 06:49:06;;;;;;;1999.90;999.90;;;3.70;99.90;;;;;;6252480;22;20008;-79
2023/12/31 06:51:31;;;;;;;1999.90;999.90;;;3.80;99.90;;;;;;6255068;22;20096;-79
2023/12/31 06:53:58;;;;;;;1999.90;999.90;;;3.90;99.90;;;;;;6255686;22;20005;-79
2023/12/31 06:56:23;;;;;;;1999.90;999.90;;;4.00;99.90;;;;;;6252012;22;20059;-80
2023/12/31 06:58:50;;;;;;;1999.90;999.90;;;4.20;99.90;;;;;;6251815;22;20147;-80
2023/12/31 07:01:16;;;;;;;1999.90;999.90;;;4.20;99.90;;;;;;6226489;22;20456;-79
2023/12/31 07:03:42;;;;;;;1999.90;999.90;;;4.30;99.90;;;;;;6253217;22;20005;-80
2023/12/31 07:06:08;;;;;;;1999.90;999.90;;;4.40;99.90;;;;;;6253399;22;20019;-79
2023/12/31 07:08:34;;;;;;;1999.90;999.90;;;4.40;99.90;;;;;;6226277;22;20019;-79
2023/12/31 07:11:00;;;;;;;1999.90;999.90;;;4.50;99.90;;;;;;6253326;22;20503;-80
2023/12/31 07:13:26;;;;;;;1999.90;999.90;;;4.50;99.90;;;;;;6253424;22;20032;-79
2023/12/31 07:15:51;;;;;;;1999.90;999.90;;;4.60;99.90;;;;;;6253480;22;20020;-79
2023/12/31 07:18:17;;;;;;;1999.90;999.90;;;4.70;99.90;;;;;;6252659;22;20009;-80
2023/12/31 07:20:42;;;;;;;1999.90;999.90;;;4.80;99.90;;;;;;6253322;22;20028;-80
2023/12/31 07:23:08;;;;;;;1999.90;999.90;;;4.80;99.90;;;;;;6253624;22;20016;-79
2023/12/31 07:25:33;;;;;;;1999.90;999.90;;;4.90;99.90;;;;;;6253629;22;20017;-80
2023/12/31 07:27:59;;;;;;;1999.90;999.90;;;5.10;99.90;;;;;;6251821;22;20008;-79
2023/12/31 07:30:25;;;;;;;1999.90;999.90;;;5.10;99.90;;;;;;6254123;22;20005;-79
2023/12/31 07:32:51;;;;;;;1999.90;999.90;;;5.20;99.90;;;;;;6226583;22;20040;-80
2023/12/31 07:35:17;;;;;;;1999.90;999.90;;;5.30;99.90;;;;;;6228123;22;20107;-79
2023/12/31 07:37:42;;;;;;;1999.90;999.90;;;5.50;99.90;;;;;;6254740;22;20075;-79
2023/12/31 07:40:09;;;;;;;1999.90;999.90;;;5.60;99.90;;;;;;6227790;22;20008;-80
2023/12/31 07:42:35;;;;;;;1999.90;999.90;;;5.70;99.90;;;;;;6227980;22;20015;-80
2023/12/31 07:45:10;;;;;;;1999.90;999.90;;;5.80;99.90;;;;;;6255222;22;20019;-80
2023/12/31 07:47:37;;;;;;;1999.90;999.90;;;5.80;99.90;;;;;;6227747;22;20445;-80
2023/12/31 07:50:03;;;;;;;1999.90;999.90;;;6.00;99.90;;;;;;6255015;22;20009;-80
2023/12/31 07:52:29;;;;;;;1999.90;999.90;;;6.50;99.90;;;;;;6254710;22;20007;-79
2023/12/31 07:54:54;;;;;;;1999.90;999.90;;;6.70;99.90;;;;;;6225996;22;20326;-80
2023/12/31 07:57:20;;;;;;;1999.90;999.90;;;6.80;99.90;;;;;;6253463;22;20382;-79
2023/12/31 07:59:46;;;;;;;1999.90;999.90;;;6.90;99.90;;;;;;6253794;22;20429;-79
2023/12/31 08:02:12;;;;;;;1999.90;999.90;;;7.10;99.90;;;;;;6253614;22;20001;-79
2023/12/31 08:04:37;;;;;;;1999.90;999.90;;;7.30;99.90;;;;;;6253458;22;20017;-80
2023/12/31 08:07:03;;;;;;;1999.90;999.90;;;7.50;99.90;;;;;;6229518;22;20024;-79
2023/12/31 08:09:29;;;;;;;1999.90;999.90;;;7.50;99.90;;;;;;6227309;22;20035;-78
2023/12/31 08:11:55;;;;;;;1999.90;999.90;;;7.50;99.90;;;;;;6226095;22;20456;-76
2023/12/31 08:14:21;;;;;;;1999.90;999.90;;;7.60;99.90;;;;;;6255275;22;20609;-79
2023/12/31 08:16:47;;;;;;;1999.90;999.90;;;7.70;99.90;;;;;;6230799;22;20005;-79
2023/12/31 08:19:13;;;;;;;1999.90;999.90;;;7.70;99.90;;;;;;6227349;22;20012;-79
2023/12/31 08:21:39;;;;;;;1999.90;999.90;;;7.70;99.90;;;;;;6253621;22;20005;-80
2023/12/31 08:24:05;;;;;;;1999.90;999.90;;;7.70;99.90;;;;;;6227528;22;20024;-79
2023/12/31 08:26:31;;;;;;;1999.90;999.90;;;7.80;99.90;;;;;;6254738;22;20015;-77
2023/12/31 08:28:58;;;;;;;1999.90;999.90;;;7.70;99.90;;;;;;6227230;22;20012;-78
2023/12/31 08:31:23;;;;;;;1999.90;999.90;;;7.70;99.90;;;;;;6229593;22;20482;-78
2023/12/31 08:33:49;;;;;;;1999.90;999.90;;;7.70;99.90;;;;;;6256207;22;20009;-80
2023/12/31 08:36:14;;;;;;;1999.90;999.90;;;7.60;99.90;;;;;;6257028;22;20020;-80
2023/12/31 08:38:40;;;;;;;1999.90;999.90;;;7.90;99.90;;;;;;6256938;22;20004;-79
2023/12/31 08:41:06;;;;;;;1999.90;999.90;;;7.80;99.90;;;;;;6230431;22;20009;-80
2023/12/31 08:43:33;;;;;;;1999.90;999.90;;;7.90;99.90;;;;;;6258933;22;20016;-80
2023/12/31 08:45:58;;;;;;;1999.90;999.90;;;8.00;99.90;;;;;;6267478;22;20004;-81
2023/12/31 08:48:24;;;;;;;1999.90;999.90;;;8.10;99.90;;;;;;6245787;22;20114;-80
2023/12/31 08:50:49;;;;;;;1999.90;999.90;;;8.20;99.90;;;;;;6260080;22;20013;-80
2023/12/31 08:53:15;;;;;;;1999.90;999.90;;;8.40;99.90;;;;;;6257037;22;20055;-79
2023/12/31 08:55:40;;;;;;;1999.90;999.90;;;8.40;99.90;;;;;;6228794;22;20084;-80
2023/12/31 08:58:06;;;;;;;1999.90;999.90;;;8.50;99.90;;;;;;6228850;22;20011;-80
2023/12/31 09:00:32;;;;;;;1999.90;999.90;;;;;;;;;;6255230;22;20333;-78
2023/12/31 09:02:59;;;;;;;1999.90;999.90;;;8.90;99.90;;;;;;6254157;22;20009;-76
2023/12/31 09:05:25;;;;;;;1999.90;999.90;;;8.90;99.90;;;;;;6252384;22;20443;-75
2023/12/31 09:07:51;;;;;;;1999.90;999.90;;;9.00;99.90;;;;;;6253316;22;20008;-76
2023/12/31 09:10:16;;;;;;;1999.90;999.90;;;9.10;99.90;;;;;;6225837;22;20040;-77
2023/12/31 09:12:42;;;;;;;1999.90;999.90;;;9.20;99.90;;;;;;6253929;22;20012;-76
2023/12/31 09:15:08;;;;;;;1999.90;999.90;;;9.20;99.90;;;;;;6253069;22;20016;-80
2023/12/31 09:17:37;;;;;;;1999.90;999.90;;;9.30;99.90;;;;;;6253396;22;20011;-79
2023/12/31 09:20:05;;;;;;;1999.90;999.90;;;9.30;99.90;;;;;;6247136;22;20038;-79
2023/12/31 09:22:32;;;;;;;1999.90;999.90;;;9.40;99.90;;;;;;6286431;22;20066;-79
2023/12/31 09:24:57;;;;;;;1999.90;999.90;;;9.50;99.90;;;;;;6258996;22;20060;-78
2023/12/31 09:27:23;;;;;;;1999.90;999.90;;;9.60;99.90;;;;;;6287803;22;20051;-78
2023/12/31 09:29:48;;;;;;;1999.90;999.90;;;9.60;99.90;;;;;;6268937;22;20052;-80
2023/12/31 09:32:14;;;;;;;1999.90;999.90;;;9.60;99.90;;;;;;6259281;22;20059;-79
2023/12/31 09:34:40;;;;;;;1999.90;999.90;;;9.70;99.90;;;;;;6231730;22;20017;-80
2023/12/31 09:37:05;;;;;;;1999.90;999.90;;;9.90;99.90;;;;;;6229831;22;20036;-79
2023/12/31 09:39:31;;;;;;;1999.90;999.90;;;9.80;99.90;;;;;;6257663;22;20008;-78
2023/12/31 09:42:01;;;;;;;1999.90;999.90;;;10.50;99.90;;;;;;6229639;22;20009;-79
2023/12/31 09:44:27;;;;;;;1999.90;999.90;;;10.10;99.90;;;;;;6226569;22;20017;-78
2023/12/31 09:47:08;;;;;;;1999.90;999.90;;;10.20;99.90;;;;;;6226963;22;20008;-79
2023/12/31 09:49:35;;;;;;;1999.90;999.90;;;10.20;99.90;;;;;;6225863;22;20005;-77
2023/12/31 09:52:08;;;;;;;1999.90;999.90;;;10.20;99.90;;;;;;6253208;22;20393;-79
2023/12/31 09:54:41;;;;;;;1999.90;999.90;;;10.20;99.90;;;;;;6252629;22;20807;-79
2023/12/31 09:57:07;;;;;;;1999.90;999.90;;;10.20;99.90;;;;;;6253905;22;20427;-78
2023/12/31 09:59:33;;;;;;;1999.90;999.90;;;10.20;99.90;;;;;;6253078;22;20008;-78
2023/12/31 10:02:04;;;;;;;1999.90;999.90;;;10.30;99.90;;;;;;6253810;22;20079;-79
2023/12/31 10:04:30;;;;;;;1999.90;999.90;;;10.40;99.90;;;;;;6253589;22;20482;-78
2023/12/31 10:06:57;;;;;;;1999.90;999.90;;;10.50;99.90;;;;;;6224221;22;20040;-77
2023/12/31 10:09:27;;;;;;;1999.90;999.90;;;10.50;99.90;;;;;;6253585;22;20005;-79
2023/12/31 10:11:56;;;;;;;1999.90;999.90;;;10.70;99.90;;;;;;6225550;22;20452;-78
2023/12/31 10:14:23;;;;;;;1999.90;999.90;;;10.80;99.90;;;;;;6252212;22;20008;-77
2023/12/31 10:16:48;;;;;;;1999.90;999.90;;;10.80;99.90;;;;;;6252518;22;20004;-77
2023/12/31 10:19:14;;;;;;;1999.90;999.90;;;10.90;99.90;;;;;;6252298;22;20019;-77
2023/12/31 10:21:44;;;;;;;1999.90;999.90;;;11.00;99.90;;;;;;6252778;22;20085;-77
2023/12/31 10:24:10;;;;;;;1999.90;999.90;;;11.10;99.90;;;;;;6252327;22;20028;-77
2023/12/31 10:26:36;;;;;;;1999.90;999.90;;;11.10;99.90;;;;;;6227008;22;20005;-77
2023/12/31 10:29:04;;;;;;;1999.90;999.90;;;11.20;99.90;;;;;;6252959;22;20084;-77
2023/12/31 10:31:31;;;;;;;1999.90;999.90;;;11.20;99.90;;;;;;6226949;22;20452;-79
2023/12/31 10:34:11;;;;;;;1999.90;999.90;;;11.30;99.90;;;;;;6255217;22;20012;-79
2023/12/31 10:36:37;;;;;;;1999.90;999.90;;;11.40;99.90;;;;;;6254039;22;20035;-79
2023/12/31 10:39:03;;;;;;;1999.90;999.90;;;11.50;99.90;;;;;;6255698;22;20072;-79
2023/12/31 10:41:33;;;;;;;1999.90;999.90;;;11.50;99.90;;;;;;6256289;22;20009;-79
2023/12/31 10:44:08;;;;;;;1999.90;999.90;;;11.50;99.90;;;;;;6252901;22;20012;-78
2023/12/31 10:46:35;;;;;;;1999.90;999.90;;;11.50;99.90;;;;;;6255224;22;20001;-81
2023/12/31 10:49:03;;;;;;;1999.90;999.90;;;11.60;99.90;;;;;;6254685;22;20083;-79
2023/12/31 10:51:31;;;;;;;1999.90;999.90;;;11.60;99.90;;;;;;6255272;22;20016;-78
2023/12/31 10:54:05;;;;;;;1999.90;999.90;;;11.60;99.90;;;;;;6254746;22;20383;-79
2023/12/31 10:56:32;;;;;;;1999.90;999.90;;;11.70;99.90;;;;;;6230141;22;20530;-79
2023/12/31 10:58:58;;;;;;;1999.90;999.90;;;11.70;99.90;;;;;;6231641;22;20011;-79
2023/12/31 11:01:24;;;;;;;1999.90;999.90;;;11.70;99.90;;;;;;6231078;22;20016;-79
2023/12/31 11:03:58;;;;;;;1999.90;999.90;;;11.60;99.90;;;;;;6258711;22;20055;-79
2023/12/31 11:06:25;;;;;;;1999.90;999.90;;;11.60;99.90;;;;;;6258375;22;20067;-78
2023/12/31 11:08:53;;;;;;;1999.90;999.90;;;11.70;99.90;;;;;;6229390;22;20098;-79
2023/12/31 11:11:19;;;;;;;1999.90;999.90;;;11.80;99.90;;;;;;6257785;22;20009;-79
2023/12/31 11:13:49;;;;;;;1999.90;999.90;;;11.70;99.90;;;;;;6257989;22;20028;-79
2023/12/31 11:16:47;;;;;;;1999.90;999.90;;;11.80;99.90;;;;;;6257335;22;20737;-79
2023/12/31 11:19:30;;;;;;;1999.90;999.90;;;11.70;99.90;;;;;;6227673;22;20081;-77
2023/12/31 11:21:59;;;;;;;1999.90;999.90;;;11.60;99.90;;;;;;6255560;22;20013;-78
2023/12/31 11:24:25;;;;;;;1999.90;999.90;;;11.60;99.90;;;;;;6227728;22;20444;-79
2023/12/31 11:27:17;;;;;;;1999.90;999.90;;;11.50;99.90;;;;;;6255222;22;20005;-79
2023/12/31 11:29:48;;;;;;;1999.90;999.90;;;11.50;99.90;;;;;;6255719;22;20001;-78
2023/12/31 11:32:17;;;;;;;1999.90;999.90;;;11.50;99.90;;;;;;6256614;22;20020;-80
2023/12/31 11:34:42;;;;;;;1999.90;999.90;;;11.40;99.90;;;;;;6257345;22;20392;-82
2023/12/31 11:37:08;;;;;;;1999.90;999.90;;;11.40;99.90;;;;;;6253757;22;20015;-82
2023/12/31 11:39:34;;;;;;;1999.90;999.90;;;11.30;99.90;;;;;;6257044;22;20420;-82
2023/12/31 11:42:10;;;;;;;1999.90;999.90;;;11.30;99.90;;;;;;6257556;22;20005;-83
2023/12/31 11:44:46;;;;;;;1999.90;999.90;;;11.20;99.90;;;;;;6252600;22;20460;-77
2023/12/31 11:47:25;;;;;;;1999.90;999.90;;;10.60;99.90;;;;;;6250602;22;20034;-79
2023/12/31 11:50:13;;;;;;;1999.90;999.90;;;9.90;99.90;;;;;;6252705;22;20087;-78
2023/12/31 11:52:42;;;;;;;1999.90;999.90;;;9.40;99.90;;;;;;6226131;22;20383;-78
2023/12/31 11:55:12;;;;;;;1999.90;999.90;;;9.00;99.90;;;;;;6252044;22;20515;-76
2023/12/31 11:57:38;;;;;;;1999.90;999.90;;;8.80;99.90;;;;;;6251575;22;20005;-78
2023/12/31 12:00:08;;;;;;;1999.90;999.90;;;8.70;99.90;;;;;;6253031;22;20059;-77
2023/12/31 12:02:34;;;;;;;1999.90;999.90;;;8.40;99.90;;;;;;6253024;22;20054;-76